sensor_id;sensor_type;location;lat;lon;timestamp;P1;durP1;ratioP1;P2;durP2;ratioP2
54985;SDS011;40885;53.070;6.228;2022-07-12T00:02:07;5.28;;;3.55;;
54985;SDS011;40885;53.070;6.228;2022-07-12T00:04:33;6.45;;;3.72;;
54985;SDS011;40885;53.070;6.228;2022-07-12T00:06:59;5.88;;;4.00;;
54985;SDS011;40885;53.070;6.228;2022-07-12T00:09:24;6.20;;;3.15;;
54985;SDS011;40885;53.070;6.228;2022-07-12T00:11:50;4.35;;;3.95;;
54985;SDS011;40885;53.070;6.228;2022-07-12T00:14:16;4.50;;;4.03;;
54985;SDS011;40885;53.070;6.228;2022-07-12T00:16:42;4.18;;;3.67;;
54985;SDS011;40885;53.070;6.228;2022-07-12T00:19:07;5.60;;;3.80;;
54985;SDS011;40885;53.070;6.228;2022-07-12T00:21:33;5.72;;;4.30;;
54985;SDS011;40885;53.070;6.228;2022-07-12T00:23:59;5.00;;;4.38;;
54985;SDS011;40885;53.070;6.228;2022-07-12T00:26:25;5.72;;;4.78;;
54985;SDS011;40885;53.070;6.228;2022-07-12T00:28:51;6.20;;;4.45;;
54985;SDS011;40885;53.070;6.228;2022-07-12T00:31:17;7.15;;;5.32;;
54985;SDS011;40885;53.070;6.228;2022-07-12T00:33:42;8.88;;;4.88;;
54985;SDS011;40885;53.070;6.228;2022-07-12T00:36:08;6.40;;;5.18;;
54985;SDS011;40885;53.070;6.228;2022-07-12T00:38:34;4.97;;;4.57;;
54985;SDS011;40885;53.070;6.228;2022-07-12T00:41:00;6.40;;;4.43;;
54985;SDS011;40885;53.070;6.228;2022-07-12T00:43:26;4.90;;;4.40;;
54985;SDS011;40885;53.070;6.228;2022-07-12T00:45:51;5.20;;;4.70;;
54985;SDS011;40885;53.070;6.228;2022-07-12T00:48:18;5.50;;;5.00;;
54985;SDS011;40885;53.070;6.228;2022-07-12T00:50:44;5.57;;;4.93;;
54985;SDS011;40885;53.070;6.228;2022-07-12T00:53:12;5.50;;;5.00;;
54985;SDS011;40885;53.070;6.228;2022-07-12T00:55:38;7.30;;;4.93;;
54985;SDS011;40885;53.070;6.228;2022-07-12T00:58:13;5.88;;;4.70;;
54985;SDS011;40885;53.070;6.228;2022-07-12T01:00:39;6.78;;;4.97;;
54985;SDS011;40885;53.070;6.228;2022-07-12T01:03:04;6.32;;;5.18;;
54985;SDS011;40885;53.070;6.228;2022-07-12T01:05:31;7.63;;;5.55;;
54985;SDS011;40885;53.070;6.228;2022-07-12T01:07:57;5.32;;;4.72;;
54985;SDS011;40885;53.070;6.228;2022-07-12T01:10:23;6.07;;;5.30;;
54985;SDS011;40885;53.070;6.228;2022-07-12T01:12:49;5.78;;;5.20;;
54985;SDS011;40885;53.070;6.228;2022-07-12T01:15:15;8.80;;;6.18;;
54985;SDS011;40885;53.070;6.228;2022-07-12T01:17:43;6.50;;;5.85;;
54985;SDS011;40885;53.070;6.228;2022-07-12T01:20:11;6.93;;;5.28;;
54985;SDS011;40885;53.070;6.228;2022-07-12T01:22:39;7.18;;;4.97;;
54985;SDS011;40885;53.070;6.228;2022-07-12T01:25:06;8.98;;;5.78;;
54985;SDS011;40885;53.070;6.228;2022-07-12T01:27:33;5.75;;;5.05;;
54985;SDS011;40885;53.070;6.228;2022-07-12T01:30:00;6.70;;;5.43;;
54985;SDS011;40885;53.070;6.228;2022-07-12T01:32:28;6.68;;;5.45;;
54985;SDS011;40885;53.070;6.228;2022-07-12T01:34:59;7.85;;;6.28;;
54985;SDS011;40885;53.070;6.228;2022-07-12T01:37:33;6.57;;;5.75;;
54985;SDS011;40885;53.070;6.228;2022-07-12T01:40:01;6.17;;;5.57;;
54985;SDS011;40885;53.070;6.228;2022-07-12T01:42:30;7.03;;;6.07;;
54985;SDS011;40885;53.070;6.228;2022-07-12T01:44:56;6.55;;;5.95;;
54985;SDS011;40885;53.070;6.228;2022-07-12T01:47:23;6.93;;;6.07;;
54985;SDS011;40885;53.070;6.228;2022-07-12T01:49:52;8.80;;;5.97;;
54985;SDS011;40885;53.070;6.228;2022-07-12T01:52:18;7.00;;;6.00;;
54985;SDS011;40885;53.070;6.228;2022-07-12T01:54:44;8.13;;;6.35;;
54985;SDS011;40885;53.070;6.228;2022-07-12T01:57:11;9.15;;;6.47;;
54985;SDS011;40885;53.070;6.228;2022-07-12T01:59:37;8.27;;;6.82;;
54985;SDS011;40885;53.070;6.228;2022-07-12T02:02:03;9.25;;;6.88;;
54985;SDS011;40885;53.070;6.228;2022-07-12T02:04:29;7.05;;;6.30;;
54985;SDS011;40885;53.070;6.228;2022-07-12T02:06:55;7.50;;;6.00;;
54985;SDS011;40885;53.070;6.228;2022-07-12T02:09:21;9.38;;;6.40;;
54985;SDS011;40885;53.070;6.228;2022-07-12T02:11:47;8.85;;;6.47;;
54985;SDS011;40885;53.070;6.228;2022-07-12T02:14:14;7.03;;;6.32;;
54985;SDS011;40885;53.070;6.228;2022-07-12T02:16:40;8.25;;;5.90;;
54985;SDS011;40885;53.070;6.228;2022-07-12T02:19:07;7.18;;;6.47;;
54985;SDS011;40885;53.070;6.228;2022-07-12T02:21:33;6.82;;;6.13;;
54985;SDS011;40885;53.070;6.228;2022-07-12T02:23:59;6.10;;;5.50;;
54985;SDS011;40885;53.070;6.228;2022-07-12T02:26:25;7.13;;;6.32;;
54985;SDS011;40885;53.070;6.228;2022-07-12T02:28:51;10.40;;;7.45;;
54985;SDS011;40885;53.070;6.228;2022-07-12T02:31:17;6.90;;;6.22;;
54985;SDS011;40885;53.070;6.228;2022-07-12T02:33:43;6.72;;;5.93;;
54985;SDS011;40885;53.070;6.228;2022-07-12T02:36:09;8.27;;;6.82;;
54985;SDS011;40885;53.070;6.228;2022-07-12T02:38:34;7.53;;;5.50;;
54985;SDS011;40885;53.070;6.228;2022-07-12T02:41:00;6.07;;;5.47;;
54985;SDS011;40885;53.070;6.228;2022-07-12T02:43:27;5.13;;;4.68;;
54985;SDS011;40885;53.070;6.228;2022-07-12T02:46:05;6.28;;;5.65;;
54985;SDS011;40885;53.070;6.228;2022-07-12T02:48:32;5.97;;;5.40;;
54985;SDS011;40885;53.070;6.228;2022-07-12T02:51:01;6.25;;;4.80;;
54985;SDS011;40885;53.070;6.228;2022-07-12T02:53:28;4.45;;;4.03;;
54985;SDS011;40885;53.070;6.228;2022-07-12T02:55:54;16.63;;;4.90;;
54985;SDS011;40885;53.070;6.228;2022-07-12T02:58:20;6.65;;;4.03;;
54985;SDS011;40885;53.070;6.228;2022-07-12T03:00:46;22.08;;;4.97;;
54985;SDS011;40885;53.070;6.228;2022-07-12T03:03:12;5.68;;;4.72;;
54985;SDS011;40885;53.070;6.228;2022-07-12T03:05:39;8.77;;;4.50;;
54985;SDS011;40885;53.070;6.228;2022-07-12T03:08:06;8.30;;;4.60;;
54985;SDS011;40885;53.070;6.228;2022-07-12T03:10:33;7.15;;;4.20;;
54985;SDS011;40885;53.070;6.228;2022-07-12T03:12:59;6.35;;;4.15;;
54985;SDS011;40885;53.070;6.228;2022-07-12T03:15:25;14.55;;;4.40;;
54985;SDS011;40885;53.070;6.228;2022-07-12T03:17:51;14.85;;;3.97;;
54985;SDS011;40885;53.070;6.228;2022-07-12T03:20:17;7.45;;;3.35;;
54985;SDS011;40885;53.070;6.228;2022-07-12T03:22:43;4.45;;;3.63;;
54985;SDS011;40885;53.070;6.228;2022-07-12T03:25:11;18.50;;;4.35;;
54985;SDS011;40885;53.070;6.228;2022-07-12T03:27:38;7.68;;;3.78;;
54985;SDS011;40885;53.070;6.228;2022-07-12T03:30:04;7.38;;;3.50;;
54985;SDS011;40885;53.070;6.228;2022-07-12T03:32:31;3.97;;;3.50;;
54985;SDS011;40885;53.070;6.228;2022-07-12T03:34:57;3.53;;;3.22;;
54985;SDS011;40885;53.070;6.228;2022-07-12T03:37:23;5.28;;;3.13;;
54985;SDS011;40885;53.070;6.228;2022-07-12T03:39:49;3.95;;;3.63;;
54985;SDS011;40885;53.070;6.228;2022-07-12T03:42:15;7.85;;;3.92;;
54985;SDS011;40885;53.070;6.228;2022-07-12T03:44:40;4.15;;;3.67;;
54985;SDS011;40885;53.070;6.228;2022-07-12T03:47:12;5.70;;;3.38;;
54985;SDS011;40885;53.070;6.228;2022-07-12T03:49:38;6.18;;;3.10;;
54985;SDS011;40885;53.070;6.228;2022-07-12T03:52:04;6.10;;;3.47;;
54985;SDS011;40885;53.070;6.228;2022-07-12T03:54:30;10.23;;;3.40;;
54985;SDS011;40885;53.070;6.228;2022-07-12T03:56:55;12.52;;;4.05;;
54985;SDS011;40885;53.070;6.228;2022-07-12T03:59:42;12.90;;;4.57;;
54985;SDS011;40885;53.070;6.228;2022-07-12T04:02:09;4.63;;;4.18;;
54985;SDS011;40885;53.070;6.228;2022-07-12T04:04:35;10.35;;;4.22;;
54985;SDS011;40885;53.070;6.228;2022-07-12T04:07:01;3.92;;;3.55;;
54985;SDS011;40885;53.070;6.228;2022-07-12T04:09:27;12.77;;;4.07;;
54985;SDS011;40885;53.070;6.228;2022-07-12T04:11:53;6.57;;;3.70;;
54985;SDS011;40885;53.070;6.228;2022-07-12T04:14:19;12.65;;;3.30;;
54985;SDS011;40885;53.070;6.228;2022-07-12T04:16:44;10.07;;;3.38;;
54985;SDS011;40885;53.070;6.228;2022-07-12T04:19:10;6.07;;;2.83;;
54985;SDS011;40885;53.070;6.228;2022-07-12T04:21:37;13.25;;;3.10;;
54985;SDS011;40885;53.070;6.228;2022-07-12T04:24:03;24.70;;;3.35;;
54985;SDS011;40885;53.070;6.228;2022-07-12T04:26:30;14.73;;;3.60;;
54985;SDS011;40885;53.070;6.228;2022-07-12T04:28:56;6.72;;;2.80;;
54985;SDS011;40885;53.070;6.228;2022-07-12T04:31:22;21.02;;;3.13;;
54985;SDS011;40885;53.070;6.228;2022-07-12T04:33:48;13.88;;;2.70;;
54985;SDS011;40885;53.070;6.228;2022-07-12T04:36:14;6.28;;;2.47;;
54985;SDS011;40885;53.070;6.228;2022-07-12T04:38:40;4.20;;;2.17;;
54985;SDS011;40885;53.070;6.228;2022-07-12T04:41:06;5.05;;;2.50;;
54985;SDS011;40885;53.070;6.228;2022-07-12T04:43:32;9.45;;;2.53;;
54985;SDS011;40885;53.070;6.228;2022-07-12T04:46:07;7.53;;;2.58;;
54985;SDS011;40885;53.070;6.228;2022-07-12T04:48:36;2.67;;;2.47;;
54985;SDS011;40885;53.070;6.228;2022-07-12T04:51:02;3.67;;;3.10;;
54985;SDS011;40885;53.070;6.228;2022-07-12T04:53:28;3.42;;;2.58;;
54985;SDS011;40885;53.070;6.228;2022-07-12T04:55:55;3.53;;;3.03;;
54985;SDS011;40885;53.070;6.228;2022-07-12T04:58:21;2.70;;;2.50;;
54985;SDS011;40885;53.070;6.228;2022-07-12T05:00:48;2.30;;;2.10;;
54985;SDS011;40885;53.070;6.228;2022-07-12T05:03:15;3.45;;;2.70;;
54985;SDS011;40885;53.070;6.228;2022-07-12T05:05:40;3.10;;;2.90;;
54985;SDS011;40885;53.070;6.228;2022-07-12T05:08:06;5.45;;;3.00;;
54985;SDS011;40885;53.070;6.228;2022-07-12T05:10:32;3.70;;;3.40;;
54985;SDS011;40885;53.070;6.228;2022-07-12T05:12:58;3.88;;;3.40;;
54985;SDS011;40885;53.070;6.228;2022-07-12T05:15:23;3.65;;;3.33;;
54985;SDS011;40885;53.070;6.228;2022-07-12T05:17:49;3.03;;;2.80;;
54985;SDS011;40885;53.070;6.228;2022-07-12T05:20:15;3.15;;;2.85;;
54985;SDS011;40885;53.070;6.228;2022-07-12T05:22:41;2.95;;;2.75;;
54985;SDS011;40885;53.070;6.228;2022-07-12T05:25:07;3.22;;;2.92;;
54985;SDS011;40885;53.070;6.228;2022-07-12T05:27:36;2.55;;;2.35;;
54985;SDS011;40885;53.070;6.228;2022-07-12T05:30:02;3.20;;;2.42;;
54985;SDS011;40885;53.070;6.228;2022-07-12T05:32:29;3.30;;;2.58;;
54985;SDS011;40885;53.070;6.228;2022-07-12T05:34:55;3.17;;;2.80;;
54985;SDS011;40885;53.070;6.228;2022-07-12T05:37:20;2.80;;;2.30;;
54985;SDS011;40885;53.070;6.228;2022-07-12T05:39:49;2.50;;;2.30;;
54985;SDS011;40885;53.070;6.228;2022-07-12T05:42:15;2.90;;;2.70;;
54985;SDS011;40885;53.070;6.228;2022-07-12T05:44:41;3.53;;;2.63;;
54985;SDS011;40885;53.070;6.228;2022-07-12T05:47:07;2.72;;;2.30;;
54985;SDS011;40885;53.070;6.228;2022-07-12T05:49:32;3.28;;;2.35;;
54985;SDS011;40885;53.070;6.228;2022-07-12T05:51:58;2.47;;;1.95;;
54985;SDS011;40885;53.070;6.228;2022-07-12T05:54:42;3.27;;;2.30;;
54985;SDS011;40885;53.070;6.228;2022-07-12T05:57:08;2.53;;;2.33;;
54985;SDS011;40885;53.070;6.228;2022-07-12T05:59:34;2.78;;;2.53;;
54985;SDS011;40885;53.070;6.228;2022-07-12T06:02:00;3.90;;;2.13;;
54985;SDS011;40885;53.070;6.228;2022-07-12T06:04:26;2.40;;;2.20;;
54985;SDS011;40885;53.070;6.228;2022-07-12T06:06:52;2.25;;;2.05;;
54985;SDS011;40885;53.070;6.228;2022-07-12T06:09:18;2.20;;;2.00;;
54985;SDS011;40885;53.070;6.228;2022-07-12T06:11:44;2.40;;;2.15;;
54985;SDS011;40885;53.070;6.228;2022-07-12T06:14:09;2.83;;;2.30;;
54985;SDS011;40885;53.070;6.228;2022-07-12T06:16:35;3.28;;;2.33;;
54985;SDS011;40885;53.070;6.228;2022-07-12T06:19:01;4.78;;;2.50;;
54985;SDS011;40885;53.070;6.228;2022-07-12T06:21:27;3.22;;;2.30;;
54985;SDS011;40885;53.070;6.228;2022-07-12T06:23:52;3.90;;;2.45;;
54985;SDS011;40885;53.070;6.228;2022-07-12T06:26:18;3.83;;;2.67;;
54985;SDS011;40885;53.070;6.228;2022-07-12T06:28:44;3.28;;;2.45;;
54985;SDS011;40885;53.070;6.228;2022-07-12T06:31:10;9.43;;;2.85;;
54985;SDS011;40885;53.070;6.228;2022-07-12T06:33:36;2.45;;;2.25;;
54985;SDS011;40885;53.070;6.228;2022-07-12T06:36:05;2.40;;;2.20;;
54985;SDS011;40885;53.070;6.228;2022-07-12T06:38:31;2.67;;;2.42;;
54985;SDS011;40885;53.070;6.228;2022-07-12T06:40:57;3.00;;;2.22;;
54985;SDS011;40885;53.070;6.228;2022-07-12T06:43:23;3.33;;;2.92;;
54985;SDS011;40885;53.070;6.228;2022-07-12T06:45:49;2.80;;;2.55;;
54985;SDS011;40885;53.070;6.228;2022-07-12T06:48:14;2.42;;;2.03;;
54985;SDS011;40885;53.070;6.228;2022-07-12T06:50:40;3.78;;;2.20;;
54985;SDS011;40885;53.070;6.228;2022-07-12T06:53:10;2.30;;;2.10;;
54985;SDS011;40885;53.070;6.228;2022-07-12T06:55:37;4.18;;;2.13;;
54985;SDS011;40885;53.070;6.228;2022-07-12T06:58:02;5.03;;;2.33;;
54985;SDS011;40885;53.070;6.228;2022-07-12T07:00:28;2.63;;;2.42;;
54985;SDS011;40885;53.070;6.228;2022-07-12T07:02:54;2.70;;;1.98;;
54985;SDS011;40885;53.070;6.228;2022-07-12T07:05:20;5.10;;;2.28;;
54985;SDS011;40885;53.070;6.228;2022-07-12T07:07:45;2.90;;;2.33;;
54985;SDS011;40885;53.070;6.228;2022-07-12T07:10:11;4.75;;;2.40;;
54985;SDS011;40885;53.070;6.228;2022-07-12T07:12:37;2.58;;;2.33;;
54985;SDS011;40885;53.070;6.228;2022-07-12T07:15:03;2.97;;;2.08;;
54985;SDS011;40885;53.070;6.228;2022-07-12T07:17:29;2.70;;;2.50;;
54985;SDS011;40885;53.070;6.228;2022-07-12T07:19:55;3.20;;;2.90;;
54985;SDS011;40885;53.070;6.228;2022-07-12T07:22:21;3.05;;;2.45;;
54985;SDS011;40885;53.070;6.228;2022-07-12T07:24:47;2.90;;;2.30;;
54985;SDS011;40885;53.070;6.228;2022-07-12T07:27:13;3.42;;;1.77;;
54985;SDS011;40885;53.070;6.228;2022-07-12T07:29:39;2.10;;;2.00;;
54985;SDS011;40885;53.070;6.228;2022-07-12T07:32:23;2.78;;;2.35;;
54985;SDS011;40885;53.070;6.228;2022-07-12T07:34:52;2.15;;;2.05;;
54985;SDS011;40885;53.070;6.228;2022-07-12T07:37:18;3.15;;;2.17;;
54985;SDS011;40885;53.070;6.228;2022-07-12T07:39:44;2.00;;;1.70;;
54985;SDS011;40885;53.070;6.228;2022-07-12T07:42:10;2.35;;;1.80;;
54985;SDS011;40885;53.070;6.228;2022-07-12T07:44:35;2.50;;;2.30;;
54985;SDS011;40885;53.070;6.228;2022-07-12T07:47:01;2.67;;;2.47;;
54985;SDS011;40885;53.070;6.228;2022-07-12T07:49:27;2.55;;;2.35;;
54985;SDS011;40885;53.070;6.228;2022-07-12T07:51:53;2.35;;;1.92;;
54985;SDS011;40885;53.070;6.228;2022-07-12T07:54:19;4.10;;;2.15;;
54985;SDS011;40885;53.070;6.228;2022-07-12T07:56:45;2.15;;;1.65;;
54985;SDS011;40885;53.070;6.228;2022-07-12T07:59:10;2.75;;;1.90;;
54985;SDS011;40885;53.070;6.228;2022-07-12T08:01:36;3.47;;;1.65;;
54985;SDS011;40885;53.070;6.228;2022-07-12T08:04:09;6.90;;;1.50;;
54985;SDS011;40885;53.070;6.228;2022-07-12T08:06:35;1.92;;;1.67;;
54985;SDS011;40885;53.070;6.228;2022-07-12T08:09:01;5.30;;;2.35;;
54985;SDS011;40885;53.070;6.228;2022-07-12T08:11:28;2.35;;;2.00;;
54985;SDS011;40885;53.070;6.228;2022-07-12T08:13:53;3.17;;;2.08;;
54985;SDS011;40885;53.070;6.228;2022-07-12T08:16:22;2.67;;;1.98;;
54985;SDS011;40885;53.070;6.228;2022-07-12T08:18:48;4.28;;;2.20;;
54985;SDS011;40885;53.070;6.228;2022-07-12T08:21:13;5.65;;;1.90;;
54985;SDS011;40885;53.070;6.228;2022-07-12T08:23:39;2.10;;;1.95;;
54985;SDS011;40885;53.070;6.228;2022-07-12T08:26:08;2.67;;;2.10;;
54985;SDS011;40885;53.070;6.228;2022-07-12T08:28:34;3.22;;;2.22;;
54985;SDS011;40885;53.070;6.228;2022-07-12T08:31:00;2.85;;;2.50;;
54985;SDS011;40885;53.070;6.228;2022-07-12T08:33:25;2.30;;;2.10;;
54985;SDS011;40885;53.070;6.228;2022-07-12T08:35:51;4.13;;;2.10;;
54985;SDS011;40885;53.070;6.228;2022-07-12T08:38:17;1.92;;;1.65;;
54985;SDS011;40885;53.070;6.228;2022-07-12T08:40:43;2.00;;;1.90;;
54985;SDS011;40885;53.070;6.228;2022-07-12T08:43:09;1.77;;;1.67;;
54985;SDS011;40885;53.070;6.228;2022-07-12T08:45:35;3.67;;;2.55;;
54985;SDS011;40885;53.070;6.228;2022-07-12T08:48:01;3.05;;;2.10;;
54985;SDS011;40885;53.070;6.228;2022-07-12T08:50:26;2.20;;;1.42;;
54985;SDS011;40885;53.070;6.228;2022-07-12T08:52:53;4.20;;;2.28;;
54985;SDS011;40885;53.070;6.228;2022-07-12T08:55:22;2.10;;;1.92;;
54985;SDS011;40885;53.070;6.228;2022-07-12T08:58:03;5.80;;;2.10;;
54985;SDS011;40885;53.070;6.228;2022-07-12T09:00:33;2.15;;;1.95;;
54985;SDS011;40885;53.070;6.228;2022-07-12T09:03:04;3.35;;;2.13;;
54985;SDS011;40885;53.070;6.228;2022-07-12T09:05:32;2.80;;;2.05;;
54985;SDS011;40885;53.070;6.228;2022-07-12T09:10:28;3.40;;;2.40;;
54985;SDS011;40885;53.070;6.228;2022-07-12T09:12:54;2.92;;;2.00;;
54985;SDS011;40885;53.070;6.228;2022-07-12T09:15:21;1.80;;;1.65;;
54985;SDS011;40885;53.070;6.228;2022-07-12T09:18:00;2.33;;;2.08;;
54985;SDS011;40885;53.070;6.228;2022-07-12T09:20:34;2.97;;;1.88;;
54985;SDS011;40885;53.070;6.228;2022-07-12T09:23:04;2.50;;;2.10;;
54985;SDS011;40885;53.070;6.228;2022-07-12T09:25:31;2.78;;;2.50;;
54985;SDS011;40885;53.070;6.228;2022-07-12T09:27:58;2.70;;;2.50;;
54985;SDS011;40885;53.070;6.228;2022-07-12T09:30:25;5.03;;;2.40;;
54985;SDS011;40885;53.070;6.228;2022-07-12T09:32:59;3.80;;;2.78;;
54985;SDS011;40885;53.070;6.228;2022-07-12T09:41:08;2.83;;;2.08;;
54985;SDS011;40885;53.070;6.228;2022-07-12T09:43:34;2.60;;;2.40;;
54985;SDS011;40885;53.070;6.228;2022-07-12T09:46:00;2.60;;;2.00;;
54985;SDS011;40885;53.070;6.228;2022-07-12T09:48:29;3.60;;;2.40;;
54985;SDS011;40885;53.070;6.228;2022-07-12T09:50:56;3.17;;;2.50;;
54985;SDS011;40885;53.070;6.228;2022-07-12T09:53:33;3.70;;;1.90;;
54985;SDS011;40885;53.070;6.228;2022-07-12T09:56:07;5.57;;;1.80;;
54985;SDS011;40885;53.070;6.228;2022-07-12T09:58:47;1.83;;;1.65;;
54985;SDS011;40885;53.070;6.228;2022-07-12T10:01:21;2.22;;;1.65;;
54985;SDS011;40885;53.070;6.228;2022-07-12T10:03:48;1.85;;;1.67;;
54985;SDS011;40885;53.070;6.228;2022-07-12T10:06:25;5.65;;;2.20;;
54985;SDS011;40885;53.070;6.228;2022-07-12T10:08:54;4.38;;;2.85;;
54985;SDS011;40885;53.070;6.228;2022-07-12T10:11:21;5.13;;;2.60;;
54985;SDS011;40885;53.070;6.228;2022-07-12T10:13:48;3.58;;;2.72;;
54985;SDS011;40885;53.070;6.228;2022-07-12T10:16:15;3.63;;;2.05;;
54985;SDS011;40885;53.070;6.228;2022-07-12T10:18:56;4.13;;;1.77;;
54985;SDS011;40885;53.070;6.228;2022-07-12T10:21:48;3.42;;;2.05;;
54985;SDS011;40885;53.070;6.228;2022-07-12T10:24:57;4.63;;;2.28;;
54985;SDS011;40885;53.070;6.228;2022-07-12T10:29:43;3.25;;;2.67;;
54985;SDS011;40885;53.070;6.228;2022-07-12T10:32:23;4.32;;;2.72;;
54985;SDS011;40885;53.070;6.228;2022-07-12T10:35:02;3.40;;;2.83;;
54985;SDS011;40885;53.070;6.228;2022-07-12T10:37:31;3.10;;;2.80;;
54985;SDS011;40885;53.070;6.228;2022-07-12T10:42:39;9.10;;;3.30;;
54985;SDS011;40885;53.070;6.228;2022-07-12T10:45:10;4.80;;;3.50;;
54985;SDS011;40885;53.070;6.228;2022-07-12T10:47:53;4.13;;;2.78;;
54985;SDS011;40885;53.070;6.228;2022-07-12T10:50:28;2.45;;;2.25;;
54985;SDS011;40885;53.070;6.228;2022-07-12T10:56:11;2.53;;;2.30;;
54985;SDS011;40885;53.070;6.228;2022-07-12T10:58:41;3.35;;;2.55;;
54985;SDS011;40885;53.070;6.228;2022-07-12T11:03:55;2.78;;;1.98;;
54985;SDS011;40885;53.070;6.228;2022-07-12T11:08:58;2.40;;;1.58;;
54985;SDS011;40885;53.070;6.228;2022-07-12T11:11:29;3.40;;;2.90;;
54985;SDS011;40885;53.070;6.228;2022-07-12T11:13:57;3.97;;;2.75;;
54985;SDS011;40885;53.070;6.228;2022-07-12T11:16:26;4.15;;;2.42;;
54985;SDS011;40885;53.070;6.228;2022-07-12T11:18:53;4.88;;;2.20;;
54985;SDS011;40885;53.070;6.228;2022-07-12T11:21:20;2.90;;;2.30;;
54985;SDS011;40885;53.070;6.228;2022-07-12T11:23:47;3.30;;;2.20;;
54985;SDS011;40885;53.070;6.228;2022-07-12T11:26:13;7.05;;;4.13;;
54985;SDS011;40885;53.070;6.228;2022-07-12T11:28:40;3.28;;;2.80;;
54985;SDS011;40885;53.070;6.228;2022-07-12T11:31:09;4.72;;;2.90;;
54985;SDS011;40885;53.070;6.228;2022-07-12T11:33:37;6.03;;;2.58;;
54985;SDS011;40885;53.070;6.228;2022-07-12T11:36:09;3.08;;;2.30;;
54985;SDS011;40885;53.070;6.228;2022-07-12T11:38:36;5.28;;;2.85;;
54985;SDS011;40885;53.070;6.228;2022-07-12T11:41:05;5.57;;;2.38;;
54985;SDS011;40885;53.070;6.228;2022-07-12T11:43:32;5.45;;;2.55;;
54985;SDS011;40885;53.070;6.228;2022-07-12T11:45:59;5.60;;;2.00;;
54985;SDS011;40885;53.070;6.228;2022-07-12T11:48:25;5.43;;;2.15;;
54985;SDS011;40885;53.070;6.228;2022-07-12T11:50:52;5.95;;;1.80;;
54985;SDS011;40885;53.070;6.228;2022-07-12T11:55:52;2.58;;;1.45;;
54985;SDS011;40885;53.070;6.228;2022-07-12T11:58:21;3.95;;;1.60;;
54985;SDS011;40885;53.070;6.228;2022-07-12T12:00:48;1.80;;;0.80;;
54985;SDS011;40885;53.070;6.228;2022-07-12T12:03:15;3.17;;;1.20;;
54985;SDS011;40885;53.070;6.228;2022-07-12T12:05:42;2.15;;;0.90;;
54985;SDS011;40885;53.070;6.228;2022-07-12T12:08:09;2.70;;;1.00;;
54985;SDS011;40885;53.070;6.228;2022-07-12T12:10:36;2.10;;;0.70;;
54985;SDS011;40885;53.070;6.228;2022-07-12T12:13:02;2.03;;;0.90;;
54985;SDS011;40885;53.070;6.228;2022-07-12T12:15:32;4.32;;;0.90;;
54985;SDS011;40885;53.070;6.228;2022-07-12T12:18:05;0.77;;;0.73;;
54985;SDS011;40885;53.070;6.228;2022-07-12T12:20:32;1.50;;;0.70;;
54985;SDS011;40885;53.070;6.228;2022-07-12T12:22:59;1.17;;;0.85;;
54985;SDS011;40885;53.070;6.228;2022-07-12T12:25:39;3.45;;;1.40;;
54985;SDS011;40885;53.070;6.228;2022-07-12T12:28:05;5.25;;;0.98;;
54985;SDS011;40885;53.070;6.228;2022-07-12T12:30:32;2.42;;;0.90;;
54985;SDS011;40885;53.070;6.228;2022-07-12T12:33:00;1.48;;;1.30;;
54985;SDS011;40885;53.070;6.228;2022-07-12T12:35:34;2.42;;;1.30;;
54985;SDS011;40885;53.070;6.228;2022-07-12T12:38:02;1.80;;;1.52;;
54985;SDS011;40885;53.070;6.228;2022-07-12T12:40:38;2.75;;;0.90;;
54985;SDS011;40885;53.070;6.228;2022-07-12T12:43:08;1.83;;;1.10;;
54985;SDS011;40885;53.070;6.228;2022-07-12T12:45:51;2.13;;;1.00;;
54985;SDS011;40885;53.070;6.228;2022-07-12T12:48:19;2.42;;;0.95;;
54985;SDS011;40885;53.070;6.228;2022-07-12T12:50:50;1.95;;;1.02;;
54985;SDS011;40885;53.070;6.228;2022-07-12T12:53:27;4.65;;;1.80;;
54985;SDS011;40885;53.070;6.228;2022-07-12T12:55:53;1.10;;;1.00;;
54985;SDS011;40885;53.070;6.228;2022-07-12T12:58:21;2.78;;;1.00;;
54985;SDS011;40885;53.070;6.228;2022-07-12T13:00:53;2.45;;;1.30;;
54985;SDS011;40885;53.070;6.228;2022-07-12T13:03:21;3.22;;;1.10;;
54985;SDS011;40885;53.070;6.228;2022-07-12T13:05:49;2.20;;;0.95;;
54985;SDS011;40885;53.070;6.228;2022-07-12T13:08:15;3.17;;;0.95;;
54985;SDS011;40885;53.070;6.228;2022-07-12T13:10:44;2.45;;;0.90;;
54985;SDS011;40885;53.070;6.228;2022-07-12T13:13:11;1.88;;;1.15;;
54985;SDS011;40885;53.070;6.228;2022-07-12T13:15:38;4.40;;;0.90;;
54985;SDS011;40885;53.070;6.228;2022-07-12T13:18:04;4.13;;;0.82;;
54985;SDS011;40885;53.070;6.228;2022-07-12T13:20:31;1.70;;;0.63;;
54985;SDS011;40885;53.070;6.228;2022-07-12T13:22:58;1.80;;;1.10;;
54985;SDS011;40885;53.070;6.228;2022-07-12T13:25:24;1.80;;;1.13;;
54985;SDS011;40885;53.070;6.228;2022-07-12T13:27:50;0.85;;;0.70;;
54985;SDS011;40885;53.070;6.228;2022-07-12T13:30:17;2.92;;;0.80;;
54985;SDS011;40885;53.070;6.228;2022-07-12T13:32:45;0.77;;;0.60;;
54985;SDS011;40885;53.070;6.228;2022-07-12T13:35:11;1.85;;;0.80;;
54985;SDS011;40885;53.070;6.228;2022-07-12T13:37:39;1.75;;;0.70;;
54985;SDS011;40885;53.070;6.228;2022-07-12T13:40:06;3.05;;;0.60;;
54985;SDS011;40885;53.070;6.228;2022-07-12T13:42:48;2.17;;;0.68;;
54985;SDS011;40885;53.070;6.228;2022-07-12T13:45:17;4.32;;;1.40;;
54985;SDS011;40885;53.070;6.228;2022-07-12T13:47:44;3.67;;;0.90;;
54985;SDS011;40885;53.070;6.228;2022-07-12T13:50:14;2.30;;;0.98;;
54985;SDS011;40885;53.070;6.228;2022-07-12T13:52:41;2.85;;;1.20;;
54985;SDS011;40885;53.070;6.228;2022-07-12T13:55:08;19.45;;;2.40;;
54985;SDS011;40885;53.070;6.228;2022-07-12T13:57:37;1.50;;;0.60;;
54985;SDS011;40885;53.070;6.228;2022-07-12T14:00:08;3.13;;;0.55;;
54985;SDS011;40885;53.070;6.228;2022-07-12T14:02:40;4.18;;;0.68;;
54985;SDS011;40885;53.070;6.228;2022-07-12T14:05:07;40.67;;;1.98;;
54985;SDS011;40885;53.070;6.228;2022-07-12T14:07:35;1.10;;;0.38;;
54985;SDS011;40885;53.070;6.228;2022-07-12T14:10:05;4.53;;;0.40;;
54985;SDS011;40885;53.070;6.228;2022-07-12T14:12:32;2.45;;;0.40;;
54985;SDS011;40885;53.070;6.228;2022-07-12T14:14:58;1.70;;;0.43;;
54985;SDS011;40885;53.070;6.228;2022-07-12T14:20:12;4.22;;;0.50;;
54985;SDS011;40885;53.070;6.228;2022-07-12T14:22:40;1.25;;;0.60;;
54985;SDS011;40885;53.070;6.228;2022-07-12T14:25:06;2.03;;;0.57;;
54985;SDS011;40885;53.070;6.228;2022-07-12T14:27:33;3.72;;;0.57;;
54985;SDS011;40885;53.070;6.228;2022-07-12T14:30:00;0.60;;;0.45;;
54985;SDS011;40885;53.070;6.228;2022-07-12T14:32:26;0.50;;;0.35;;
54985;SDS011;40885;53.070;6.228;2022-07-12T14:34:52;0.43;;;0.40;;
54985;SDS011;40885;53.070;6.228;2022-07-12T14:37:17;0.60;;;0.43;;
54985;SDS011;40885;53.070;6.228;2022-07-12T14:39:43;0.95;;;0.40;;
54985;SDS011;40885;53.070;6.228;2022-07-12T14:42:09;1.13;;;0.40;;
54985;SDS011;40885;53.070;6.228;2022-07-12T14:44:35;0.52;;;0.20;;
54985;SDS011;40885;53.070;6.228;2022-07-12T14:47:01;2.35;;;0.25;;
54985;SDS011;40885;53.070;6.228;2022-07-12T14:49:27;2.25;;;0.20;;
54985;SDS011;40885;53.070;6.228;2022-07-12T14:51:56;0.45;;;0.30;;
54985;SDS011;40885;53.070;6.228;2022-07-12T14:54:22;2.47;;;0.17;;
54985;SDS011;40885;53.070;6.228;2022-07-12T14:56:48;1.33;;;0.30;;
54985;SDS011;40885;53.070;6.228;2022-07-12T14:59:14;0.40;;;0.20;;
54985;SDS011;40885;53.070;6.228;2022-07-12T15:01:40;0.25;;;0.25;;
54985;SDS011;40885;53.070;6.228;2022-07-12T15:04:07;2.15;;;0.45;;
54985;SDS011;40885;53.070;6.228;2022-07-12T15:06:33;2.05;;;0.20;;
54985;SDS011;40885;53.070;6.228;2022-07-12T15:08:59;0.20;;;0.20;;
54985;SDS011;40885;53.070;6.228;2022-07-12T15:11:25;2.88;;;0.30;;
54985;SDS011;40885;53.070;6.228;2022-07-12T15:13:51;2.85;;;0.28;;
54985;SDS011;40885;53.070;6.228;2022-07-12T15:16:17;3.35;;;0.35;;
54985;SDS011;40885;53.070;6.228;2022-07-12T15:18:43;1.08;;;0.40;;